»·PEaware :: N707WT KSEE-KSDM

N707WT :: KSEE-KSDM

FLIGHT INFORMATION

Flight Status: Arrived
Operator: Privately registered:
United States
More flights under this callsign
Pilot: Mark B. (9455)
Aircraft: CIRRUS SR-20
(SR20)
More flights by this aircraft type
Origin: KSEE Gillespie
United States
Destination: KSDM Brown Mun
United States
More flights between these airports :: More routes between these airports
Route: +MZB
File this flight plan on PilotEdge
Remarks: ZULU wx
Altitude:
(Current/Filed)
3,000ft
Speed:
(Current/Filed)
145kts
Departed: 03-Mar-19 09:10 PM
Arrived: 03-Mar-19 09:44 PM
Distance/Time
Traveled:
15nm/0:34
Distance/Time
To Go:
Arrived

Flight Plot

Page will automatically refresh every two minutes.


Map Options




Map Legend


Flown Route
Filed Route
Departure Airport
Arrival Airport
Navaid (VOR, NDB)
Fix

Horizontal Profiles

Position Reports

Time Latitude Longitude Heading Altitude Ground
Speed
03-Mar-19 20:53 32.825042 -116.969391 14 378ft 0kts
03-Mar-19 20:54 32.825042 -116.969391 14 378ft 0kts
03-Mar-19 20:55 32.825042 -116.969391 14 378ft 0kts
03-Mar-19 20:56 32.825042 -116.969391 14 378ft 0kts
03-Mar-19 20:57 32.825042 -116.969391 14 378ft 0kts
03-Mar-19 20:58 32.825042 -116.969391 14 378ft 0kts
03-Mar-19 20:59 32.825042 -116.969391 14 378ft 0kts
03-Mar-19 21:00 32.825042 -116.969391 14 378ft 0kts
03-Mar-19 21:01 32.825042 -116.969391 14 378ft 0kts
03-Mar-19 21:02 32.825042 -116.969391 14 378ft 0kts
03-Mar-19 21:03 32.825042 -116.969391 14 378ft 0kts
03-Mar-19 21:04 32.824737 -116.968687 107 380ft 9kts
03-Mar-19 21:05 32.824887 -116.965695 98 386ft 7kts
03-Mar-19 21:06 32.825175 -116.964412 19 390ft 10kts
03-Mar-19 21:07 32.825809 -116.964306 356 391ft 0kts
03-Mar-19 21:08 32.825809 -116.964306 356 391ft 0kts
03-Mar-19 21:09 32.828915 -116.974639 291 633ft 77kts
03-Mar-19 21:10 32.840002 -116.993645 321 1579ft 87kts
03-Mar-19 21:11 32.855879 -117.008072 321 2535ft 90kts
03-Mar-19 21:12 32.871910 -117.023346 321 3504ft 85kts
03-Mar-19 21:13 32.891231 -117.040603 322 3833ft 131kts
03-Mar-19 21:14 32.916210 -117.064672 321 3796ft 149kts
03-Mar-19 21:15 32.941920 -117.090412 320 3816ft 151kts
03-Mar-19 21:16 32.961485 -117.117534 284 3822ft 152kts
03-Mar-19 21:17 32.967830 -117.155742 280 3825ft 153kts
03-Mar-19 21:18 32.973989 -117.195595 279 3812ft 153kts
03-Mar-19 21:19 32.971299 -117.237207 234 3495ft 165kts
03-Mar-19 21:20 32.943350 -117.269147 222 2919ft 170kts
03-Mar-19 21:21 32.915525 -117.299482 221 2813ft 155kts
03-Mar-19 21:22 32.888922 -117.327336 220 2798ft 153kts
03-Mar-19 21:23 32.862334 -117.354891 220 2810ft 152kts
03-Mar-19 21:24 32.835839 -117.382474 223 2825ft 151kts
03-Mar-19 21:25 32.810090 -117.410613 221 2895ft 146kts
03-Mar-19 21:26 32.783568 -117.436791 205 2906ft 151kts
03-Mar-19 21:27 32.755042 -117.422851 115 2855ft 153kts
03-Mar-19 21:28 32.738035 -117.386530 130 2815ft 153kts
03-Mar-19 21:29 32.714751 -117.355536 130 2872ft 150kts
03-Mar-19 21:30 32.692103 -117.324055 134 2883ft 150kts
03-Mar-19 21:31 32.667881 -117.294539 132 2862ft 153kts
03-Mar-19 21:32 32.644827 -117.263883 131 2796ft 141kts
03-Mar-19 21:33 32.625028 -117.236978 119 2851ft 127kts
03-Mar-19 21:34 32.613225 -117.205324 110 2433ft 109kts
03-Mar-19 21:35 32.606211 -117.179729 108 2382ft 97kts
03-Mar-19 21:36 32.597655 -117.154252 108 2408ft 101kts
03-Mar-19 21:37 32.590656 -117.125916 106 2282ft 107kts
03-Mar-19 21:38 32.584708 -117.097779 100 2239ft 105kts
03-Mar-19 21:39 32.579829 -117.068628 99 1783ft 112kts
03-Mar-19 21:40 32.577829 -117.039199 98 1319ft 105kts
03-Mar-19 21:41 32.575151 -117.010612 96 857ft 107kts
03-Mar-19 21:42 32.573222 -116.986951 94 522ft 56kts
03-Mar-19 21:43 32.572347 -116.976236 97 512ft 30kts
03-Mar-19 21:44 32.571386 -116.974129 182 510ft 0kts

Navigation Log

Ident Type
Flight plan parsing failed, navigation log unavailable